Observation data for Tatum on 02/14/2017      Previous  Date  Next       Current Mesonet Observations  Soil Data  Daily Summary Page  Observations in Plain Language
KTAT 140600Z 33004KT 03/01 A3006 RMK A01 T00310013  RH  089%=      5-min Rain = 0
KTAT 140605Z 32005KT 03/01 A3006 RMK A01 T00310012  RH  088%=      5-min Rain = 0
KTAT 140610Z 32005KT 03/01 A3006 RMK A01 T00310012  RH  088%=      5-min Rain = 0
KTAT 140615Z 33006KT 03/01 A3006 RMK A01 T00310012  RH  088%=      5-min Rain = 0
KTAT 140620Z 32005KT 03/01 A3006 RMK A01 T00310012  RH  088%=      5-min Rain = 0
KTAT 140625Z 32004KT 03/01 A3006 RMK A01 T00320013  RH  088%=      5-min Rain = 0
KTAT 140630Z 33004KT 03/01 A3006 RMK A01 T00310012  RH  088%=      5-min Rain = 0
KTAT 140635Z 34005KT 03/01 A3006 RMK A01 T00320013  RH  088%=      5-min Rain = 0
KTAT 140640Z 34005KT 03/01 A3006 RMK A01 T00320013  RH  089%=      5-min Rain = 0
KTAT 140645Z 34006KT 03/01 A3006 RMK A01 T00320013  RH  089%=      5-min Rain = 0
KTAT 140650Z 34005KT 03/01 A3006 RMK A01 T00320014  RH  089%=      5-min Rain = 0
KTAT 140655Z 32004KT 03/01 A3006 RMK A01 T00320014  RH  089%=      5-min Rain = 0
KTAT 140700Z 32006KT 03/02 A3006 RMK A01 T00320015  RH  089%=      5-min Rain = 0
KTAT 140705Z 33007KT 03/01 A3006 RMK A01 T00330014  RH  089%=      5-min Rain = 0
KTAT 140710Z 33008KT 03/01 A3005 RMK A01 T00330014  RH  089%=      5-min Rain = 0
KTAT 140715Z 33007KT 03/01 A3005 RMK A01 T00330014  RH  088%=      5-min Rain = 0
KTAT 140720Z 33007KT 03/01 A3005 RMK A01 T00330014  RH  088%=      5-min Rain = 0
KTAT 140725Z 33007KT 03/01 A3005 RMK A01 T00330014  RH  088%=      5-min Rain = 0
KTAT 140730Z 34006KT 03/01 A3005 RMK A01 T00330014  RH  088%=      5-min Rain = 0
KTAT 140735Z 33007KT 03/01 A3005 RMK A01 T00330014  RH  088%=      5-min Rain = 0
KTAT 140740Z 33007KT 03/01 A3005 RMK A01 T00340014  RH  088%=      5-min Rain = 0
KTAT 140745Z 33007KT 03/01 A3005 RMK A01 T00340014  RH  088%=      5-min Rain = 0
KTAT 140750Z 32007KT 03/02 A3005 RMK A01 T00340015  RH  088%=      5-min Rain = 0
KTAT 140755Z 33006KT 03/02 A3005 RMK A01 T00340016  RH  089%=      5-min Rain = 0
KTAT 140800Z 33008KT 03/02 A3005 RMK A01 T00340016  RH  089%=      5-min Rain = 0
KTAT 140805Z 33008KT 03/02 A3005 RMK A01 T00340016  RH  089%=      5-min Rain = 0
KTAT 140810Z 33009KT 04/02 A3005 RMK A01 T00350016  RH  089%=      5-min Rain = 0
KTAT 140815Z 33009KT 04/02 A3005 RMK A01 T00350016  RH  089%=      5-min Rain = 0
KTAT 140820Z 32009KT 04/02 A3005 RMK A01 T00350016  RH  089%=      5-min Rain = 0
KTAT 140825Z 32008KT 04/02 A3005 RMK A01 T00350017  RH  089%=      5-min Rain = 0
KTAT 140830Z 32008KT 04/02 A3005 RMK A01 T00350017  RH  089%=      5-min Rain = 0
KTAT 140835Z 32008KT 04/02 A3005 RMK A01 T00350017  RH  089%=      5-min Rain = 0
KTAT 140840Z 33008KT 04/02 A3005 RMK A01 T00360017  RH  089%=      5-min Rain = 0
KTAT 140845Z 33010KT 04/02 A3005 RMK A01 T00360016  RH  088%=      5-min Rain = 0
KTAT 140850Z 33010KT 04/02 A3005 RMK A01 T00360016  RH  088%=      5-min Rain = 0
KTAT 140855Z 34009KT 04/02 A3005 RMK A01 T00360016  RH  088%=      5-min Rain = 0
KTAT 140900Z 34009KT 04/02 A3005 RMK A01 T00360015  RH  088%=      5-min Rain = 0
KTAT 140905Z 33008KT 04/02 A3005 RMK A01 T00360015  RH  088%=      5-min Rain = 0
KTAT 140910Z 32009KT 04/02 A3005 RMK A01 T00360016  RH  088%=      5-min Rain = 0
KTAT 140915Z 32008KT 04/02 A3005 RMK A01 T00360016  RH  088%=      5-min Rain = 0
KTAT 140920Z 32008KT 04/02 A3005 RMK A01 T00360016  RH  088%=      5-min Rain = 0
KTAT 140925Z 32008KT 04/02 A3005 RMK A01 T00370017  RH  088%=      5-min Rain = 0
KTAT 140930Z 32009KT 04/02 A3005 RMK A01 T00370017  RH  088%=      5-min Rain = 0
KTAT 140935Z 33010KT 04/02 A3005 RMK A01 T00370017  RH  088%=      5-min Rain = 0
KTAT 140940Z 33010KT 04/02 A3005 RMK A01 T00370018  RH  088%=      5-min Rain = 0
KTAT 140945Z 33010KT 04/02 A3005 RMK A01 T00370017  RH  088%=      5-min Rain = 0
KTAT 140950Z 33010KT 04/02 A3005 RMK A01 T00370018  RH  089%=      5-min Rain = 0
KTAT 140955Z 33009KT 04/02 A3005 RMK A01 T00370019  RH  089%=      5-min Rain = 0
KTAT 141000Z 34011KT 04/02 A3005 RMK A01 T00360019  RH  089%=      5-min Rain = 0
KTAT 141005Z 33010KT 04/02 A3005 RMK A01 T00360019  RH  089%=      5-min Rain = 0
KTAT 141010Z 34009G14KT 04/02 A3005 RMK A01 T00360019  RH  090%=      5-min Rain = 0
KTAT 141015Z 34009KT 04/02 A3005 RMK A01 T00360019  RH  090%=      5-min Rain = 0
KTAT 141020Z 34009KT 04/02 A3005 RMK A01 T00360020  RH  090%=      5-min Rain = 0
KTAT 141025Z 34009G14KT 04/02 A3005 RMK A01 T00360020  RH  091%=      5-min Rain = 0
KTAT 141030Z 35009KT 04/02 A3005 RMK A01 T00350020  RH  091%=      5-min Rain = 0
KTAT 141035Z 35008KT 04/02 A3005 RMK A01 T00350020  RH  091%=      5-min Rain = 0
KTAT 141040Z 35007KT 03/02 A3005 RMK A01 T00340020  RH  092%=      5-min Rain = 0
KTAT 141045Z 35006KT 03/02 A3004 RMK A01 T00340020  RH  092%=      5-min Rain = 0
KTAT 141050Z 35006KT 03/02 A3004 RMK A01 T00340021  RH  092%=      5-min Rain = 0
KTAT 141055Z 35006KT 03/02 A3004 RMK A01 T00340021  RH  092%=      5-min Rain = 0
KTAT 141100Z 00006KT 03/02 A3004 RMK A01 T00340021  RH  092%=      5-min Rain = 0
KTAT 141105Z 36005KT 03/02 A3004 RMK A01 T00340021  RH  092%=      5-min Rain = 0
KTAT 141110Z 35005KT 03/02 A3004 RMK A01 T00340021  RH  092%=      5-min Rain = 0
KTAT 141115Z 35007KT 04/02 A3004 RMK A01 T00350022  RH  092%=      5-min Rain = 0
KTAT 141120Z 35008KT 04/02 A3004 RMK A01 T00350021  RH  092%=      5-min Rain = 0
KTAT 141125Z 35009KT 04/02 A3004 RMK A01 T00350021  RH  091%=      5-min Rain = 0
KTAT 141130Z 35009KT 04/02 A3004 RMK A01 T00360021  RH  091%=      5-min Rain = 0
KTAT 141135Z 35010KT 04/02 A3004 RMK A01 T00360020  RH  090%=      5-min Rain = 0
KTAT 141140Z 35009KT 04/02 A3004 RMK A01 T00360019  RH  090%=      5-min Rain = 0
KTAT 141145Z 35008KT 04/02 A3004 RMK A01 T00360019  RH  090%=      5-min Rain = 0
KTAT 141150Z 34007KT 04/02 A3005 RMK A01 T00360020  RH  090%=      5-min Rain = 0
KTAT 141155Z 33012G17KT 04/02 A3005 RMK A01 T00360020  RH  090%=      5-min Rain = 0
KTAT 141200Z 34015KT 04/02 A3005 RMK A01 T00350017  RH  089%=      5-min Rain = 0
KTAT 141205Z 34016G21KT 03/02 A3005 RMK A01 T00340015  RH  089%=      5-min Rain = 0
KTAT 141210Z 34015G20KT 03/02 A3005 RMK A01 T00330015  RH  088%=      5-min Rain = 0
KTAT 141215Z 34014KT 03/02 A3005 RMK A01 T00330015  RH  089%=      5-min Rain = 0
KTAT 141220Z 34017KT 03/01 A3005 RMK A01 T00320013  RH  088%=      5-min Rain = 0
KTAT 141225Z 34016G22KT 03/01 A3006 RMK A01 T00310010  RH  087%=      5-min Rain = 0
KTAT 141230Z 34014G19KT 03/01 A3006 RMK A01 T00300010  RH  088%=      5-min Rain = 0
KTAT 141235Z 34016KT 03/01 A3006 RMK A01 T00300008  RH  087%=      5-min Rain = 0
KTAT 141240Z 34015KT 03/01 A3006 RMK A01 T00290007  RH  086%=      5-min Rain = 0
KTAT 141245Z 34017KT 03/01 A3007 RMK A01 T00290007  RH  086%=      5-min Rain = 0
KTAT 141250Z 34016KT 03/01 A3007 RMK A01 T00280006  RH  086%=      5-min Rain = 0
KTAT 141255Z 34015G21KT 03/01 A3007 RMK A01 T00280006  RH  086%=      5-min Rain = 0
KTAT 141300Z 34016G21KT 03/01 A3007 RMK A01 T00280006  RH  086%=      5-min Rain = 0
KTAT 141305Z 34016G21KT 03/01 A3007 RMK A01 T00270005  RH  086%=      5-min Rain = 0
KTAT 141310Z 34016G21KT 03/00 A3007 RMK A01 T00260004  RH  086%=      5-min Rain = 0
KTAT 141315Z 34016G21KT 03/00 A3008 RMK A01 T00260004  RH  087%=      5-min Rain = 0
KTAT 141320Z 34015KT 03/01 A3008 RMK A01 T00260005  RH  087%=      5-min Rain = 0
KTAT 141325Z 34015G20KT 03/00 A3008 RMK A01 T00260004  RH  087%=      5-min Rain = 0
KTAT 141330Z 34017G23KT 03/00 A3009 RMK A01 T00260003  RH  086%=      5-min Rain = 0
KTAT 141335Z 34016G22KT 03/00 A3009 RMK A01 T00250003  RH  086%=      5-min Rain = 0
KTAT 141340Z 34016G21KT 03/00 A3009 RMK A01 T00250003  RH  086%=      5-min Rain = 0
KTAT 141345Z 34016G22KT 03/00 A3009 RMK A01 T00250003  RH  086%=      5-min Rain = 0
KTAT 141350Z 34017KT 02/00 A301 RMK A01 T00240002  RH  086%=      5-min Rain = 0
KTAT 141355Z 34018G23KT 02/00 A301 RMK A01 T00240002  RH  086%=      5-min Rain = 0
KTAT 141400Z 34017G23KT 02/00 A301 RMK A01 T00240002  RH  086%=      5-min Rain = 0
KTAT 141405Z 34016KT 02/00 A3011 RMK A01 T00240002  RH  086%=      5-min Rain = 0
KTAT 141410Z 34017G22KT 02/00 A3011 RMK A01 T00240002  RH  086%=      5-min Rain = 0
KTAT 141415Z 34016G21KT 02/00 A3011 RMK A01 T00230002  RH  087%=      5-min Rain = 0
KTAT 141420Z 34015KT 02/00 A3011 RMK A01 T00230001  RH  087%=      5-min Rain = 0
KTAT 141425Z 34016KT 02/00 A3012 RMK A01 T00230001  RH  086%=      5-min Rain = 0
KTAT 141430Z 34016G21KT 02/00 A3012 RMK A01 T00220001  RH  087%=      5-min Rain = 0
KTAT 141435Z 34016G21KT 02/00 A3012 RMK A01 T00210001  RH  088%=      5-min Rain = 0
KTAT 141440Z 34015KT 02/00 A3012 RMK A01 T00190002  RH  089%=      5-min Rain = 0
KTAT 141445Z 33015G20KT 02/00 A3012 RMK A01 T00170001  RH  090%=      5-min Rain = 0.01
KTAT 141450Z 33014KT 02/00 A3013 RMK A01 T00150000  RH  091%=      5-min Rain = 0
KTAT 141455Z 33015KT 01/00 A3013 RMK A01 T001300-0  RH  092%=      5-min Rain = 0
KTAT 141500Z 34014KT 01/00 A3013 RMK A01 T00130000  RH  092%=      5-min Rain = 0
KTAT 141505Z 34015G21KT 01/00 A3013 RMK A01 T00130001  RH  092%=      5-min Rain = 0
KTAT 141510Z 34016KT 01/00 A3013 RMK A01 T00140001  RH  092%=      5-min Rain = 0
KTAT 141515Z 35015G21KT 01/00 A3013 RMK A01 T00130001  RH  092%=      5-min Rain = 0
KTAT 141520Z 35016G21KT 01/00 A3013 RMK A01 T00140002  RH  093%=      5-min Rain = 0
KTAT 141525Z 35020G25KT 02/00 A3013 RMK A01 T00150002  RH  092%=      5-min Rain = 0
KTAT 141530Z 36021G26KT 02/00 A3013 RMK A01 T00150001  RH  091%=      5-min Rain = 0
KTAT 141535Z 36022G30KT 02/00 A3013 RMK A01 T00150001  RH  091%=      5-min Rain = 0.01
KTAT 141540Z 00023G30KT 02/00 A3013 RMK A01 T00160002  RH  091%=      5-min Rain = 0
KTAT 141545Z 00021G28KT 02/00 A3013 RMK A01 T00170003  RH  092%=      5-min Rain = 0
KTAT 141550Z 00022G28KT 02/00 A3013 RMK A01 T00170003  RH  091%=      5-min Rain = 0
KTAT 141555Z 36021G29KT 02/00 A3014 RMK A01 T00190004  RH  091%=      5-min Rain = 0
KTAT 141600Z 00023G31KT 02/00 A3014 RMK A01 T00200003  RH  090%=      5-min Rain = 0
KTAT 141605Z 00026G34KT 02/00 A3014 RMK A01 T00210002  RH  088%=      5-min Rain = 0
KTAT 141610Z 36024G31KT 02/00 A3014 RMK A01 T00230003  RH  088%=      5-min Rain = 0
KTAT 141615Z 00023G30KT 02/00 A3014 RMK A01 T00240004  RH  088%=      5-min Rain = 0
KTAT 141620Z 36022G29KT 03/01 A3014 RMK A01 T00260005  RH  087%=      5-min Rain = 0
KTAT 141625Z 00024G32KT 02/00 A3014 RMK A01 T00240002  RH  086%=      5-min Rain = 0
KTAT 141630Z 00024G30KT 03/00 A3014 RMK A01 T00250001  RH  086%=      5-min Rain = 0
KTAT 141635Z 36025G31KT 03/00 A3015 RMK A01 T002500-0  RH  084%=      5-min Rain = 0
KTAT 141640Z 36022G28KT 03/00 A3015 RMK A01 T00260000  RH  084%=      5-min Rain = 0
KTAT 141645Z 00024G31KT 03/M00 A3015 RMK A01 T00251003  RH  083%=      5-min Rain = 0
KTAT 141650Z 00020G28KT 03/00 A3015 RMK A01 T00290002  RH  083%=      5-min Rain = 0
KTAT 141655Z 01019G26KT 03/00 A3015 RMK A01 T00300002  RH  083%=      5-min Rain = 0
KTAT 141700Z 36023G29KT 03/M00 A3015 RMK A01 T00291003  RH  081%=      5-min Rain = 0
KTAT 141705Z 00022KT 03/M00 A3015 RMK A01 T00291003  RH  081%=      5-min Rain = 0
KTAT 141710Z 01023G31KT 03/M00 A3015 RMK A01 T00301002  RH  080%=      5-min Rain = 0
KTAT 141715Z 00026G31KT 03/M01 A3015 RMK A01 T00311006  RH  078%=      5-min Rain = 0
KTAT 141720Z 01023G31KT 03/M00 A3015 RMK A01 T00311004  RH  078%=      5-min Rain = 0
KTAT 141725Z 00022G27KT 03/M00 A3016 RMK A01 T00321003  RH  078%=      5-min Rain = 0
KTAT 141730Z 00022G29KT 03/M00 A3016 RMK A01 T00321004  RH  078%=      5-min Rain = 0
KTAT 141735Z 36022G30KT 04/00 A3016 RMK A01 T003600-0  RH  078%=      5-min Rain = 0
KTAT 141740Z 00022G28KT 04/00 A3016 RMK A01 T00380001  RH  077%=      5-min Rain = 0
KTAT 141745Z 01021G27KT 04/00 A3016 RMK A01 T003900-0  RH  076%=      5-min Rain = 0
KTAT 141750Z 00020G26KT 04/M00 A3016 RMK A01 T00371004  RH  075%=      5-min Rain = 0
KTAT 141755Z 36019G27KT 04/M01 A3016 RMK A01 T00361005  RH  075%=      5-min Rain = 0
KTAT 141800Z 35019G25KT 03/M01 A3016 RMK A01 T00341007  RH  075%=      5-min Rain = 0
KTAT 141805Z 36019G25KT 03/M01 A3016 RMK A01 T00331011  RH  074%=      5-min Rain = 0
KTAT 141810Z 00019G26KT 04/M01 A3016 RMK A01 T00351010  RH  073%=      5-min Rain = 0
KTAT 141815Z 01020G26KT 04/M01 A3016 RMK A01 T00381012  RH  071%=      5-min Rain = 0
KTAT 141820Z 01022G28KT 04/M01 A3016 RMK A01 T00361014  RH  070%=      5-min Rain = 0
KTAT 141825Z 01021G26KT 04/M01 A3016 RMK A01 T00351013  RH  072%=      5-min Rain = 0
KTAT 141830Z 00019G24KT 03/M01 A3016 RMK A01 T00331012  RH  073%=      5-min Rain = 0
KTAT 141835Z 01018G23KT 04/M01 A3016 RMK A01 T00351009  RH  074%=      5-min Rain = 0
KTAT 141840Z 35015KT 04/M01 A3016 RMK A01 T00351007  RH  075%=      5-min Rain = 0
KTAT 141845Z 35017G22KT 03/M01 A3016 RMK A01 T00331009  RH  075%=      5-min Rain = 0
KTAT 141850Z 35017KT 03/M01 A3016 RMK A01 T00331011  RH  074%=      5-min Rain = 0
KTAT 141855Z 00017KT 03/M01 A3016 RMK A01 T00331008  RH  075%=      5-min Rain = 0
KTAT 141900Z 36015KT 03/M01 A3016 RMK A01 T00331005  RH  077%=      5-min Rain = 0
KTAT 141905Z 00017G22KT 04/M01 A3016 RMK A01 T00351010  RH  073%=      5-min Rain = 0
KTAT 141910Z 36014G22KT 04/M01 A3015 RMK A01 T00361005  RH  076%=      5-min Rain = 0
KTAT 141915Z 00015G21KT 04/M00 A3015 RMK A01 T00381004  RH  075%=      5-min Rain = 0
KTAT 141920Z 00019G24KT 04/M01 A3015 RMK A01 T00371011  RH  072%=      5-min Rain = 0
KTAT 141925Z 00017G23KT 04/M01 A3015 RMK A01 T00381009  RH  072%=      5-min Rain = 0
KTAT 141930Z 01016G22KT 04/M01 A3015 RMK A01 T00361009  RH  074%=      5-min Rain = 0
KTAT 141935Z 01016KT 04/M01 A3015 RMK A01 T00351007  RH  075%=      5-min Rain = 0
KTAT 141940Z 36015G21KT 03/M00 A3015 RMK A01 T00341002  RH  078%=      5-min Rain = 0
KTAT 141945Z 00015G21KT 04/M00 A3015 RMK A01 T00361003  RH  076%=      5-min Rain = 0
KTAT 141950Z 01018G23KT 04/M01 A3015 RMK A01 T00381009  RH  072%=      5-min Rain = 0
KTAT 141955Z 01018G24KT 04/M01 A3015 RMK A01 T00371012  RH  071%=      5-min Rain = 0
KTAT 142000Z 00017G22KT 04/M01 A3015 RMK A01 T00371011  RH  072%=      5-min Rain = 0
KTAT 142005Z 00016G21KT 04/M01 A3014 RMK A01 T00361010  RH  073%=      5-min Rain = 0
KTAT 142010Z 00019G26KT 04/M01 A3014 RMK A01 T00361010  RH  073%=      5-min Rain = 0
KTAT 142015Z 00018G24KT 04/M01 A3014 RMK A01 T00351012  RH  072%=      5-min Rain = 0
KTAT 142020Z 00018G26KT 04/M02 A3014 RMK A01 T00361015  RH  070%=      5-min Rain = 0
KTAT 142025Z 01017G23KT 04/M02 A3014 RMK A01 T00381016  RH  069%=      5-min Rain = 0
KTAT 142030Z 00021G27KT 04/M02 A3014 RMK A01 T00381023  RH  065%=      5-min Rain = 0
KTAT 142035Z 00020G25KT 04/M02 A3014 RMK A01 T00381022  RH  066%=      5-min Rain = 0
KTAT 142040Z 00021KT 04/M03 A3014 RMK A01 T00391027  RH  063%=      5-min Rain = 0
KTAT 142045Z 00020G25KT 04/M03 A3014 RMK A01 T00391028  RH  062%=      5-min Rain = 0
KTAT 142050Z 01020G28KT 04/M03 A3014 RMK A01 T00391029  RH  062%=      5-min Rain = 0
KTAT 142055Z 01019G24KT 04/M03 A3014 RMK A01 T00401029  RH  062%=      5-min Rain = 0
KTAT 142100Z 01017G22KT 04/M03 A3014 RMK A01 T00401029  RH  062%=      5-min Rain = 0
KTAT 142105Z 01019G25KT 04/M03 A3014 RMK A01 T00401031  RH  061%=      5-min Rain = 0
KTAT 142110Z 01019G25KT 04/M03 A3014 RMK A01 T00401031  RH  061%=      5-min Rain = 0
KTAT 142115Z 01019G24KT 04/M03 A3015 RMK A01 T00401030  RH  061%=      5-min Rain = 0
KTAT 142120Z 01017KT 04/M03 A3015 RMK A01 T00401029  RH  061%=      5-min Rain = 0
KTAT 142125Z 01017KT 04/M03 A3015 RMK A01 T00401027  RH  062%=      5-min Rain = 0
KTAT 142130Z 01016KT 04/M03 A3016 RMK A01 T00401026  RH  063%=      5-min Rain = 0
KTAT 142135Z 01015G20KT 04/M02 A3016 RMK A01 T00401024  RH  064%=      5-min Rain = 0
KTAT 142140Z 01015G21KT 04/M03 A3016 RMK A01 T00401026  RH  063%=      5-min Rain = 0
KTAT 142145Z 00017G22KT 04/M03 A3016 RMK A01 T00401027  RH  062%=      5-min Rain = 0
KTAT 142150Z 01014G19KT 04/M03 A3016 RMK A01 T00401028  RH  062%=      5-min Rain = 0
KTAT 142155Z 01014G20KT 04/M03 A3016 RMK A01 T00411027  RH  062%=      5-min Rain = 0
KTAT 142200Z 02017G22KT 04/M03 A3016 RMK A01 T00401029  RH  062%=      5-min Rain = 0
KTAT 142205Z 02014G19KT 04/M03 A3016 RMK A01 T00401027  RH  062%=      5-min Rain = 0
KTAT 142210Z 02015KT 04/M03 A3016 RMK A01 T00391028  RH  062%=      5-min Rain = 0
KTAT 142215Z 02014KT 04/M03 A3016 RMK A01 T00391025  RH  064%=      5-min Rain = 0
KTAT 142220Z 03014KT 04/M03 A3016 RMK A01 T00381025  RH  064%=      5-min Rain = 0
KTAT 142225Z 02015KT 04/M03 A3017 RMK A01 T00381026  RH  064%=      5-min Rain = 0
KTAT 142230Z 02013KT 04/M03 A3017 RMK A01 T00381026  RH  064%=      5-min Rain = 0
KTAT 142235Z 03013G18KT 04/M03 A3017 RMK A01 T00381027  RH  063%=      5-min Rain = 0
KTAT 142240Z 02015KT 04/M03 A3017 RMK A01 T00371031  RH  062%=      5-min Rain = 0
KTAT 142245Z 03016KT 04/M04 A3017 RMK A01 T00361035  RH  061%=      5-min Rain = 0
KTAT 142250Z 03015G21KT 04/M04 A3017 RMK A01 T00351035  RH  061%=      5-min Rain = 0
KTAT 142255Z 02015KT 03/M04 A3017 RMK A01 T00341036  RH  061%=      5-min Rain = 0
KTAT 142300Z 02013KT 03/M03 A3017 RMK A01 T00331034  RH  062%=      5-min Rain = 0
KTAT 142305Z 03012KT 03/M03 A3017 RMK A01 T00331031  RH  064%=      5-min Rain = 0
KTAT 142310Z 03012KT 03/M03 A3017 RMK A01 T00331030  RH  064%=      5-min Rain = 0
KTAT 142315Z 03012KT 03/M03 A3017 RMK A01 T00321030  RH  064%=      5-min Rain = 0
KTAT 142320Z 03013KT 03/M03 A3017 RMK A01 T00311031  RH  064%=      5-min Rain = 0
KTAT 142325Z 03012KT 03/M03 A3017 RMK A01 T00301031  RH  065%=      5-min Rain = 0
KTAT 142330Z 03010G15KT 03/M03 A3017 RMK A01 T00301029  RH  066%=      5-min Rain = 0
KTAT 142335Z 02012KT 03/M03 A3017 RMK A01 T00301032  RH  065%=      5-min Rain = 0
KTAT 142340Z 02010KT 03/M03 A3017 RMK A01 T00301030  RH  065%=      5-min Rain = 0
KTAT 142345Z 03010KT 03/M03 A3017 RMK A01 T00301028  RH  067%=      5-min Rain = 0
KTAT 142350Z 03010KT 03/M03 A3017 RMK A01 T00291028  RH  067%=      5-min Rain = 0
KTAT 142355Z 02012KT 03/M03 A3018 RMK A01 T00281030  RH  066%=      5-min Rain = 0
KTAT 150000Z 02011KT 03/M03 A3018 RMK A01 T00271030  RH  067%=      5-min Rain = 0
KTAT 150005Z 02011KT 03/M03 A3018 RMK A01 T00271030  RH  067%=      5-min Rain = 0
KTAT 150010Z 02009KT 03/M03 A3018 RMK A01 T00271028  RH  068%=      5-min Rain = 0
KTAT 150015Z 02009KT 03/M03 A3019 RMK A01 T00271027  RH  068%=      5-min Rain = 0
KTAT 150020Z 02008KT 03/M03 A3019 RMK A01 T00271027  RH  068%=      5-min Rain = 0
KTAT 150025Z 03008KT 03/M03 A3019 RMK A01 T00261025  RH  070%=      5-min Rain = 0
KTAT 150030Z 03009KT 03/M03 A3019 RMK A01 T00251026  RH  070%=      5-min Rain = 0
KTAT 150035Z 02009KT 03/M03 A3019 RMK A01 T00251027  RH  069%=      5-min Rain = 0
KTAT 150040Z 02009KT 02/M03 A302 RMK A01 T00241027  RH  070%=      5-min Rain = 0
KTAT 150045Z 02007KT 02/M03 A302 RMK A01 T00241027  RH  070%=      5-min Rain = 0
KTAT 150050Z 01006KT 02/M03 A302 RMK A01 T00231026  RH  071%=      5-min Rain = 0
KTAT 150055Z 01006KT 02/M03 A302 RMK A01 T00231025  RH  071%=      5-min Rain = 0
KTAT 150100Z 01005KT 02/M02 A302 RMK A01 T00231024  RH  072%=      5-min Rain = 0
KTAT 150105Z 01005KT 02/M03 A302 RMK A01 T00221025  RH  072%=      5-min Rain = 0
KTAT 150110Z 01005KT 02/M03 A302 RMK A01 T00221025  RH  072%=      5-min Rain = 0
KTAT 150115Z 01005KT 02/M03 A302 RMK A01 T00221025  RH  072%=      5-min Rain = 0
KTAT 150120Z 02006KT 02/M03 A302 RMK A01 T00211028  RH  071%=      5-min Rain = 0
KTAT 150125Z 01005KT 02/M03 A3021 RMK A01 T00201026  RH  072%=      5-min Rain = 0
KTAT 150130Z 00004KT 02/M03 A3021 RMK A01 T00201025  RH  073%=      5-min Rain = 0
KTAT 150135Z 36004KT 02/M02 A3021 RMK A01 T00191024  RH  074%=      5-min Rain = 0
KTAT 150140Z 36004KT 02/M03 A3021 RMK A01 T00191025  RH  074%=      5-min Rain = 0
KTAT 150145Z 36004KT 02/M03 A3021 RMK A01 T00191026  RH  073%=      5-min Rain = 0
KTAT 150150Z 35004KT 02/M02 A3021 RMK A01 T00191024  RH  074%=      5-min Rain = 0
KTAT 150155Z 35004KT 02/M02 A3021 RMK A01 T00191023  RH  075%=      5-min Rain = 0
KTAT 150200Z 33004KT 02/M02 A3021 RMK A01 T00181020  RH  076%=      5-min Rain = 0
KTAT 150205Z 33004KT 02/M02 A3021 RMK A01 T00171021  RH  077%=      5-min Rain = 0
KTAT 150210Z 33004KT 01/M02 A3021 RMK A01 T00141021  RH  078%=      5-min Rain = 0
KTAT 150215Z 34004KT 01/M02 A3021 RMK A01 T00121022  RH  079%=      5-min Rain = 0
KTAT 150220Z 32003KT 01/M02 A3021 RMK A01 T00101022  RH  080%=      5-min Rain = 0
KTAT 150225Z 31003KT 01/M02 A3022 RMK A01 T00091021  RH  081%=      5-min Rain = 0
KTAT 150230Z 30004KT 01/M02 A3022 RMK A01 T00081020  RH  083%=      5-min Rain = 0
KTAT 150235Z 31004KT 01/M02 A3022 RMK A01 T00091018  RH  083%=      5-min Rain = 0
KTAT 150240Z 31003KT 01/M02 A3022 RMK A01 T00101016  RH  083%=      5-min Rain = 0
KTAT 150245Z 30003KT 01/M02 A3022 RMK A01 T00111016  RH  083%=      5-min Rain = 0
KTAT 150250Z 30004KT 01/M02 A3022 RMK A01 T00111015  RH  083%=      5-min Rain = 0
KTAT 150255Z 30004KT 01/M02 A3022 RMK A01 T00101016  RH  084%=      5-min Rain = 0
KTAT 150300Z 31005KT 01/M02 A3022 RMK A01 T00091016  RH  084%=      5-min Rain = 0
KTAT 150305Z 31004KT 01/M02 A3023 RMK A01 T00091017  RH  084%=      5-min Rain = 0
KTAT 150310Z 31004KT 01/M02 A3023 RMK A01 T00081018  RH  084%=      5-min Rain = 0
KTAT 150315Z 31004KT 01/M02 A3023 RMK A01 T00071018  RH  084%=      5-min Rain = 0
KTAT 150320Z 32004KT 01/M02 A3023 RMK A01 T00061019  RH  084%=      5-min Rain = 0
KTAT 150325Z 33004KT 01/M02 A3023 RMK A01 T00061019  RH  085%=      5-min Rain = 0
KTAT 150330Z 34004KT 01/M02 A3023 RMK A01 T00051019  RH  085%=      5-min Rain = 0
KTAT 150335Z 34003KT 00/M02 A3023 RMK A01 T00041020  RH  085%=      5-min Rain = 0
KTAT 150340Z 34003KT 00/M02 A3023 RMK A01 T00031020  RH  086%=      5-min Rain = 0
KTAT 150345Z 34004KT 00/M02 A3023 RMK A01 T00041017  RH  087%=      5-min Rain = 0
KTAT 150350Z 34004KT 01/M02 A3023 RMK A01 T00061015  RH  087%=      5-min Rain = 0
KTAT 150355Z 34004KT 01/M01 A3023 RMK A01 T00081013  RH  087%=      5-min Rain = 0
KTAT 150400Z 33004KT 01/M01 A3023 RMK A01 T00101012  RH  086%=      5-min Rain = 0
KTAT 150405Z 33004KT 01/M01 A3023 RMK A01 T00111013  RH  085%=      5-min Rain = 0
KTAT 150410Z 33004KT 01/M01 A3023 RMK A01 T00121012  RH  085%=      5-min Rain = 0
KTAT 150415Z 34004KT 01/M01 A3023 RMK A01 T00121012  RH  085%=      5-min Rain = 0
KTAT 150420Z 33004KT 01/M01 A3023 RMK A01 T00111012  RH  085%=      5-min Rain = 0
KTAT 150425Z 33004KT 01/M01 A3023 RMK A01 T00111013  RH  085%=      5-min Rain = 0
KTAT 150430Z 32004KT 01/M01 A3023 RMK A01 T00101014  RH  085%=      5-min Rain = 0
KTAT 150435Z 31005KT 01/M02 A3023 RMK A01 T00081016  RH  085%=      5-min Rain = 0
KTAT 150440Z 31005KT 01/M02 A3023 RMK A01 T00051018  RH  086%=      5-min Rain = 0
KTAT 150445Z 31006KT 00/02 A3023 RMK A01 T00000-21  RH  087%=      5-min Rain = 0
KTAT 150450Z 30007KT M00/M02 A3022 RMK A01 T10031023  RH  088%=      5-min Rain = 0
KTAT 150455Z 29007KT M01/M02 A3022 RMK A01 T10051024  RH  088%=      5-min Rain = 0
KTAT 150500Z 29008KT M01/M03 A3022 RMK A01 T10061025  RH  088%=      5-min Rain = 0
KTAT 150505Z 29007KT M01/M03 A3022 RMK A01 T10061026  RH  088%=      5-min Rain = 0
KTAT 150510Z 30007KT M01/M03 A3022 RMK A01 T10071027  RH  088%=      5-min Rain = 0
KTAT 150515Z 29008KT M01/M03 A3022 RMK A01 T10071027  RH  087%=      5-min Rain = 0
KTAT 150520Z 29008KT M01/M03 A3022 RMK A01 T10081027  RH  088%=      5-min Rain = 0
KTAT 150525Z 29007KT M01/M03 A3022 RMK A01 T10081027  RH  088%=      5-min Rain = 0
KTAT 150530Z 29007KT M01/M03 A3022 RMK A01 T10091028  RH  088%=      5-min Rain = 0
KTAT 150535Z 29007KT M01/M03 A3023 RMK A01 T10101028  RH  088%=      5-min Rain = 0
KTAT 150540Z 29007KT M01/M03 A3023 RMK A01 T10111029  RH  088%=      5-min Rain = 0
KTAT 150545Z 30007KT M01/M03 A3023 RMK A01 T10121030  RH  089%=      5-min Rain = 0
KTAT 150550Z 30006KT M01/M03 A3023 RMK A01 T10131031  RH  089%=      5-min Rain = 0
KTAT 150555Z 30007KT M01/M03 A3023 RMK A01 T10141032  RH  089%=      5-min Rain = 0

Page generated in 0.0259 seconds.